ADDS METAR Data INFO
IDs: Format: Raw Decoded Include TAF

Data at: 2119 UTC 25 Feb 2018

KDUX 252115Z AUTO 33012G22KT 10SM CLR 11/M13 A2996 RMK AO2 T01081131
KDUX 252055Z AUTO 36011G17KT 10SM CLR 11/M13 A2995 RMK AO2 T01051131
KDUX 252035Z AUTO 35015G21KT 10SM CLR 11/M13 A2995 RMK AO2 T01101128
KDUX 252015Z AUTO 36012G22KT 10SM CLR 10/M12 A2995 RMK AO2 T00981124
KDUX 251955Z AUTO 36016G23KT 10SM CLR 10/M12 A2994 RMK AO2 T00971125
KDUX 251935Z AUTO 34011G17KT 10SM CLR 11/M13 A2995 RMK AO2 T01051129
KDUX 251915Z AUTO 35015KT 10SM CLR 09/M13 A2995 RMK AO2 T00901134
KDUX 251855Z AUTO 01009G15KT 10SM CLR 10/M14 A2995 RMK AO2 T01001140
KDUX 251835Z AUTO 32009G17KT 10SM CLR 10/M13 A2996 RMK AO2 T01031133
KDUX 251815Z AUTO 28011KT 10SM CLR 10/M13 A2996 RMK AO2 T00961134
KDUX 251755Z AUTO 28009G14KT 10SM CLR 09/M13 A2997 RMK AO2 T00901134 10090 21062
KDUX 251735Z AUTO 30010KT 10SM CLR 08/M13 A2998 RMK AO2 T00831135
KDUX 251715Z AUTO 28010G14KT 10SM CLR 08/M14 A2997 RMK AO2 T00781136
KDUX 251655Z AUTO 28012KT 10SM CLR 07/M14 A2997 RMK AO2 T00741136
KDUX 251635Z AUTO 28011G17KT 10SM CLR 07/M14 A2997 RMK AO2 T00701136
KDUX 251615Z AUTO 30005KT 10SM CLR 05/M14 A2997 RMK AO2 T00461138
KDUX 251555Z AUTO 31006KT 10SM CLR 03/M14 A2997 RMK AO2 T00291143
KDUX 251535Z AUTO 32008KT 10SM CLR 03/M14 A2997 RMK AO2 T00251144
KDUX 251515Z AUTO 33009KT 10SM CLR 02/M15 A2996 RMK AO2 T00151148
KDUX 251455Z AUTO 30008KT 10SM CLR 01/M14 A2995 RMK AO2 T00081144
KDUX 251435Z AUTO 31009KT 10SM CLR M01/M15 A2995 RMK AO2 T10141150
KDUX 251415Z AUTO 29009KT 10SM CLR M03/M16 A2995 RMK AO2 T10301158
KDUX 251355Z AUTO 29008KT 10SM CLR M05/M17 A2993 RMK AO2 T10481166
KDUX 251335Z AUTO 28008KT 10SM CLR M06/M17 A2993 RMK AO2 T10601170
KDUX 251315Z AUTO 29007KT 10SM CLR M06/M17 A2993 RMK AO2 T10591166
KDUX 251255Z AUTO 29008KT 10SM CLR M06/M16 A2993 RMK AO2 T10611163
KDUX 251235Z AUTO 29008KT 10SM CLR M05/M16 A2993 RMK AO2 T10511160
KDUX 251215Z AUTO 27008KT 10SM CLR M05/M16 A2993 RMK AO2 T10541162
KDUX 251155Z AUTO 26007KT 10SM CLR M05/M16 A2992 RMK AO2 T10491165 11020 21049
KDUX 251135Z AUTO 26009KT 10SM CLR M04/M17 A2992 RMK AO2 T10411166
KDUX 251115Z AUTO 26010KT 10SM CLR M03/M16 A2991 RMK AO2 T10331165
KDUX 251055Z AUTO 25011KT 10SM CLR M03/M17 A2991 RMK AO2 T10351170
KDUX 251035Z AUTO 27013KT 10SM CLR M04/M17 A2991 RMK AO2 T10411172
KDUX 251015Z AUTO 27010KT 10SM CLR M04/M17 A2991 RMK AO2 T10391175
KDUX 250955Z AUTO 26013KT 10SM CLR M02/M17 A2991 RMK AO2 T10211171
KDUX 250935Z AUTO 26012KT 10SM CLR M03/M17 A2991 RMK AO2 T10341174
KDUX 250915Z AUTO 26010KT 10SM CLR M04/M17 A2991 RMK AO2 T10371175
KDUX 250855Z AUTO 25008KT 10SM CLR M04/M17 A2992 RMK AO2 T10401175
KDUX 250835Z AUTO 24010KT 10SM CLR M04/M17 A2992 RMK AO2 T10401175
KDUX 250815Z AUTO 23009KT 10SM CLR M04/M17 A2991 RMK AO2 T10451175
KDUX 250755Z AUTO 22009KT 10SM CLR M04/M18 A2991 RMK AO2 T10381180
KDUX 250735Z AUTO 22010KT 10SM CLR M02/M18 A2991 RMK AO2 T10251176
KDUX 250715Z AUTO 23011KT 10SM CLR M03/M18 A2991 RMK AO2 T10281178
KDUX 250655Z AUTO 23011KT 10SM CLR M03/M18 A2991 RMK AO2 T10261178
KDUX 250635Z AUTO 23011KT 10SM CLR M02/M18 A2991 RMK AO2 T10221180
KDUX 250615Z AUTO 23010KT 10SM CLR M03/M18 A2991 RMK AO2 T10261183
KDUX 250555Z AUTO 22010KT 10SM CLR M03/M19 A2991 RMK AO2 T10341186 10101 21034 401181034
KDUX 250535Z AUTO 22009KT 10SM CLR M01/M19 A2991 RMK AO2 T10121187
KDUX 250515Z AUTO 22010KT 10SM CLR 00/M19 A2991 RMK AO2 T10011192
KDUX 250455Z AUTO 22010KT 10SM CLR 00/M20 A2992 RMK AO2 T00001196
KDUX 250435Z AUTO 22009KT 10SM CLR M02/M21 A2991 RMK AO2 T10161206
KDUX 250415Z AUTO 20008KT 10SM CLR M01/M21 A2991 RMK AO2 T10151210
KDUX 250355Z AUTO 21010KT 10SM CLR M01/M21 A2991 RMK AO2 T10111207
KDUX 250335Z AUTO 21009KT 10SM CLR M02/M21 A2991 RMK AO2 T10161213
KDUX 250315Z AUTO 20010KT 10SM CLR M02/M20 A2990 RMK AO2 T10191203
KDUX 250255Z AUTO 22007KT 10SM CLR 00/M21 A2990 RMK AO2 T10031211
KDUX 250235Z AUTO 21008KT 10SM CLR 00/M21 A2989 RMK AO2 T00041210
KDUX 250215Z AUTO 21010KT 10SM CLR 00/M21 A2989 RMK AO2 T10021206
KDUX 250155Z AUTO 23009KT 10SM CLR 01/M21 A2988 RMK AO2 T00121209
KDUX 250135Z AUTO 24008KT 10SM CLR 04/M21 A2988 RMK AO2 T00351208
KDUX 250115Z AUTO 23009KT 10SM CLR 02/M22 A2987 RMK AO2 T00221224
KDUX 250055Z AUTO 23007KT 10SM CLR 05/M22 A2987 RMK AO2 T00451220
KDUX 250035Z AUTO 24005KT 10SM CLR 07/M23 A2986 RMK AO2 T00691233
KDUX 250015Z AUTO 26008KT 10SM CLR 09/M23 A2986 RMK AO2 T00911233
KDUX 242355Z AUTO 25011KT 10SM CLR 10/M22 A2986 RMK AO2 T01021225 10118 20085
KDUX 242335Z AUTO 27016G19KT 10SM CLR 11/M21 A2985 RMK AO2 T01051214
KDUX 242315Z AUTO 29012G16KT 10SM CLR 11/M22 A2985 RMK AO2 T01061225
KDUX 242255Z AUTO 27012G18KT 10SM CLR 11/M22 A2984 RMK AO2 T01101222
KDUX 242235Z AUTO 27014G21KT 10SM CLR 11/M22 A2983 RMK AO2 T01101220
KDUX 242215Z AUTO 28014G20KT 10SM CLR 11/M21 A2982 RMK AO2 T01121214
KDUX 242155Z AUTO 27018G24KT 10SM CLR 11/M23 A2982 RMK AO2 T01111227
KDUX 242135Z AUTO 28018G27KT 10SM CLR 11/M22 A2982 RMK AO2 T01141221
KDUX 242115Z AUTO 30018G25KT 10SM CLR 11/M22 A2981 RMK AO2 T01131223
KDUX 242055Z AUTO 29013G22KT 10SM CLR 11/M23 A2981 RMK AO2 T01111232
KDUX 242035Z AUTO 30013G27KT 10SM CLR 11/M23 A2981 RMK AO2 T01101235
KDUX 242015Z AUTO 30021G26KT 10SM CLR 11/M19 A2981 RMK AO2 T01101191
KDUX 241955Z AUTO 31016G25KT 10SM CLR 11/M18 A2981 RMK AO2 T01091179
KDUX 241935Z AUTO 29019G25KT 10SM CLR 11/M17 A2982 RMK AO2 T01051174
KDUX 241915Z AUTO 29018G29KT 10SM CLR 11/M16 A2982 RMK AO2 T01071164
KDUX 241855Z AUTO 31018G23KT 10SM CLR 11/M12 A2983 RMK AO2 T01091125
KDUX 241835Z AUTO 31018G30KT 10SM CLR 10/M10 A2983 RMK AO2 T00951099
KDUX 241815Z AUTO 27020G26KT 10SM CLR 09/M10 A2984 RMK AO2 T00901104
KDUX 241755Z AUTO 29021G27KT 10SM CLR 09/M08 A2985 RMK AO2 T00851084 10085 21008
KDUX 241735Z AUTO 28024G28KT 10SM CLR 07/M06 A2985 RMK AO2 T00731056
KDUX 241715Z AUTO 27023G29KT 10SM CLR 06/M04 A2985 RMK AO2 T00631042
KDUX 241655Z AUTO 26022G27KT 10SM CLR 05/M04 A2985 RMK AO2 T00531036
KDUX 241635Z AUTO 24016G21KT 10SM SCT010 04/M01 A2985 RMK AO2 T00401008
KDUX 241615Z AUTO 25010KT 10SM BKN008 BKN013 01/01 A2984 RMK AO2 T00130010
KDUX 241555Z AUTO 28010KT 10SM OVC006 01/00 A2985 RMK AO2 T00050001
KDUX 241535Z AUTO 26010KT 7SM OVC004 01/01 A2985 RMK AO2 T00080005
KDUX 241515Z AUTO 22004KT 1 1/2SM BR OVC002 00/00 A2984 RMK AO2 T00001002
KDUX 241455Z AUTO 20003KT 1/4SM FZFG OVC002 00/M01 A2983 RMK AO2 T10031006
KDUX 241435Z AUTO 00000KT 1/4SM FZFG OVC002 M01/M01 A2983 RMK AO2 T10061010
KDUX 241415Z AUTO 36004KT 1/4SM FZFG OVC002 M01/M01 A2983 RMK AO2 T10081011
KDUX 241355Z AUTO 35009KT 1/4SM FZFG OVC002 M01/M01 A2983 RMK AO2 T10081011
KDUX 241335Z AUTO 33009KT 1/2SM FZFG OVC002 00/M01 A2985 RMK AO2 T10021006
KDUX 241315Z AUTO 34007KT 1/2SM FG OVC002 00/00 A2984 RMK AO2 T00010000
KDUX 241255Z AUTO 35007KT 1/2SM FG OVC002 00/00 A2984 RMK AO2 T00010000
KDUX 241235Z AUTO 36008KT 1/2SM FG OVC002 00/00 A2984 RMK AO2 T00010000
KDUX 241215Z AUTO 34008KT 1/4SM FG OVC002 00/00 A2984 RMK AO2 T00000000
KDUX 241155Z AUTO 34009KT 1/4SM FG OVC002 00/00 A2984 RMK AO2 T00030000 10006 20000
KDUX 241135Z AUTO 10007KT 1/4SM FG OVC002 00/00 A2981 RMK AO2 T00000000
KDUX 241115Z AUTO 11007KT 1/2SM FG OVC002 00/00 A2982 RMK AO2 T00000000
KDUX 241055Z AUTO 09005KT 1/2SM FG OVC002 00/00 A2982 RMK AO2 T00001001
KDUX 241035Z AUTO 09004KT 1/4SM FG OVC002 00/00 A2984 RMK AO2 T00001001
KDUX 241015Z AUTO 12005KT 1/4SM FG OVC002 00/00 A2985 RMK AO2 T00000000
KDUX 240955Z AUTO 14010KT 1/4SM FG OVC002 00/00 A2984 RMK AO2 T00001001
KDUX 240935Z AUTO 13008KT 1/4SM FG OVC002 00/00 A2985 RMK AO2 T00001001